createdAt,value
2018-12-09T00:00:40.070Z,75.40
2018-12-09T00:03:09.239Z,75.40
2018-12-09T00:05:40.116Z,75.20
2018-12-09T00:08:08.781Z,75.20
2018-12-09T00:10:40.079Z,75.10
2018-12-09T00:13:08.801Z,75.00
2018-12-09T00:15:37.461Z,75.00
2018-12-09T00:18:06.211Z,75.00
2018-12-09T00:20:39.992Z,75.10
2018-12-09T00:23:09.468Z,75.10
2018-12-09T00:25:38.136Z,74.90
2018-12-09T00:28:06.921Z,74.90
2018-12-09T00:30:35.498Z,74.90
2018-12-09T00:33:04.819Z,74.90
2018-12-09T00:35:33.556Z,74.90
2018-12-09T00:38:14.839Z,74.80
2018-12-09T00:40:43.629Z,74.70
2018-12-09T00:43:12.263Z,74.70
2018-12-09T00:45:46.766Z,74.70
2018-12-09T00:48:16.002Z,74.70
2018-12-09T00:50:57.341Z,74.70
2018-12-09T00:53:26.112Z,74.70
2018-12-09T00:55:54.664Z,74.60
2018-12-09T00:58:28.021Z,74.70
2018-12-09T01:00:58.039Z,74.70
2018-12-09T01:06:00.542Z,74.60
2018-12-09T01:08:29.238Z,74.70
2018-12-09T01:10:58.466Z,74.50
2018-12-09T01:13:27.965Z,74.60
2018-12-09T01:15:57.625Z,74.50
2018-12-09T01:19:50.636Z,74.60
2018-12-09T01:22:19.302Z,74.50
2018-12-09T01:24:48.001Z,74.40
2018-12-09T01:27:16.659Z,74.50
2018-12-09T01:29:45.347Z,74.40
2018-12-09T01:32:15.995Z,74.50
2018-12-09T01:34:45.452Z,74.60
2018-12-09T01:37:14.085Z,74.50
2018-12-09T01:39:42.762Z,74.50
2018-12-09T01:42:11.425Z,74.50
2018-12-09T01:44:40.793Z,74.50
2018-12-09T01:47:15.995Z,74.50
2018-12-09T01:49:44.929Z,74.60
2018-12-09T01:52:13.557Z,74.60
2018-12-09T01:54:42.088Z,74.60
2018-12-09T01:57:10.723Z,74.60
2018-12-09T01:59:39.365Z,74.60
2018-12-09T02:02:15.492Z,74.70
2018-12-09T02:04:51.559Z,74.70
2018-12-09T02:07:22.075Z,74.70
2018-12-09T02:09:50.652Z,74.70
2018-12-09T02:12:22.544Z,74.90
2018-12-09T02:14:51.198Z,74.80
2018-12-09T02:17:19.851Z,74.80
2018-12-09T02:19:48.576Z,74.80
2018-12-09T02:22:17.238Z,74.90
2018-12-09T02:24:46.987Z,74.80
2018-12-09T02:27:15.591Z,74.80
2018-12-09T02:29:44.299Z,74.80
2018-12-09T02:32:13.010Z,74.80
2018-12-09T02:34:52.097Z,74.90
2018-12-09T02:37:20.837Z,74.90
2018-12-09T02:39:49.582Z,74.90
2018-12-09T02:42:22.074Z,74.90
2018-12-09T02:44:50.788Z,74.80
2018-12-09T02:47:27.380Z,74.70
2018-12-09T02:49:56.550Z,74.70
2018-12-09T02:52:25.284Z,74.70
2018-12-09T02:54:54.544Z,74.60
2018-12-09T02:57:23.226Z,74.70
2018-12-09T02:59:51.911Z,74.70
2018-12-09T03:02:20.684Z,74.60
2018-12-09T03:04:49.516Z,74.60
2018-12-09T03:07:18.136Z,74.50
2018-12-09T03:09:52.205Z,74.50
2018-12-09T03:12:20.886Z,74.50
2018-12-09T03:14:52.207Z,74.50
2018-12-09T03:17:22.200Z,74.40
2018-12-09T03:19:50.798Z,74.30
2018-12-09T03:22:20.315Z,74.30
2018-12-09T03:24:48.970Z,74.30
2018-12-09T03:27:17.741Z,74.40
2018-12-09T03:29:57.569Z,74.30
2018-12-09T03:32:33.458Z,74.30
2018-12-09T03:35:03.165Z,74.20
2018-12-09T03:37:31.878Z,74.30
2018-12-09T03:40:00.621Z,74.30
2018-12-09T03:42:34.222Z,74.20
2018-12-09T03:45:02.849Z,74.30
2018-12-09T03:47:39.476Z,74.10
2018-12-09T03:50:10.613Z,74.10
2018-12-09T03:52:39.747Z,74.20
2018-12-09T03:55:08.301Z,74.10
2018-12-09T03:57:36.839Z,74.00
2018-12-09T04:00:07.297Z,73.90
2018-12-09T04:02:36.728Z,74.00
2018-12-09T04:05:05.752Z,74.00
2018-12-09T04:07:45.595Z,74.10
2018-12-09T04:10:14.325Z,74.10
2018-12-09T04:12:43.604Z,74.10
2018-12-09T04:15:12.400Z,74.10
2018-12-09T04:17:41.134Z,74.10
2018-12-09T04:20:09.891Z,74.10
2018-12-09T04:22:39.019Z,74.10
2018-12-09T04:25:07.671Z,74.00
2018-12-09T04:27:37.225Z,74.10
2018-12-09T04:30:10.159Z,74.10
2018-12-09T04:32:38.837Z,74.10
2018-12-09T04:35:08.041Z,74.00
2018-12-09T04:37:36.790Z,74.00
2018-12-09T04:40:05.518Z,74.10
2018-12-09T04:42:34.212Z,74.00
2018-12-09T04:45:02.877Z,74.00
2018-12-09T04:47:32.203Z,74.10
2018-12-09T04:50:01.056Z,74.10
2018-12-09T04:52:29.719Z,74.10
2018-12-09T04:54:59.000Z,74.20
2018-12-09T04:57:27.699Z,74.20
2018-12-09T05:00:06.378Z,74.20
2018-12-09T05:02:35.138Z,74.20
2018-12-09T05:05:04.424Z,74.20
2018-12-09T05:07:33.087Z,74.30
2018-12-09T05:10:01.808Z,74.30
2018-12-09T05:12:30.459Z,74.30
2018-12-09T05:14:59.136Z,74.40
2018-12-09T05:17:28.274Z,74.40
2018-12-09T05:19:56.988Z,74.40
2018-12-09T05:22:25.634Z,74.40
2018-12-09T05:24:58.293Z,74.40
2018-12-09T05:27:26.834Z,74.40
2018-12-09T05:29:58.313Z,74.40
2018-12-09T05:32:27.668Z,74.50
2018-12-09T05:34:58.334Z,74.50
2018-12-09T05:37:27.775Z,74.50
2018-12-09T05:39:56.498Z,74.40
2018-12-09T05:42:28.299Z,74.50
2018-12-09T05:44:56.917Z,74.50
2018-12-09T05:47:26.098Z,74.50
2018-12-09T05:49:58.917Z,74.60
2018-12-09T05:52:33.472Z,74.60
2018-12-09T05:55:05.162Z,74.60
2018-12-09T05:57:33.903Z,74.60
2018-12-09T06:02:42.283Z,74.60
2018-12-09T06:05:11.229Z,74.60
2018-12-09T06:07:39.828Z,74.60
2018-12-09T06:10:09.232Z,74.70
2018-12-09T06:12:37.812Z,74.70
2018-12-09T06:15:10.249Z,74.70
2018-12-09T06:17:40.327Z,74.80
2018-12-09T06:20:10.255Z,74.70
2018-12-09T06:22:39.005Z,74.80
2018-12-09T06:25:07.631Z,74.80
2018-12-09T06:27:36.360Z,74.80
2018-12-09T06:30:07.614Z,74.90
2018-12-09T06:32:36.424Z,74.90
2018-12-09T06:35:06.072Z,74.90
2018-12-09T06:37:34.773Z,75.00
2018-12-09T06:40:04.923Z,74.90
2018-12-09T06:42:35.147Z,74.90
2018-12-09T06:45:03.997Z,74.90
2018-12-09T06:47:32.752Z,75.00
2018-12-09T06:50:01.451Z,74.90
2018-12-09T06:52:31.010Z,75.10
2018-12-09T06:55:04.667Z,75.10
2018-12-09T06:57:33.461Z,75.10
2018-12-09T07:00:02.172Z,75.20
2018-12-09T07:02:30.796Z,75.20
2018-12-09T07:04:59.477Z,75.20
2018-12-09T07:07:28.230Z,75.20
2018-12-09T07:09:56.829Z,75.10
2018-12-09T07:12:25.536Z,75.20
2018-12-09T07:14:54.275Z,75.10
2018-12-09T07:17:23.006Z,74.70
2018-12-09T07:19:51.560Z,74.40
2018-12-09T07:22:22.477Z,74.10
2018-12-09T07:24:51.873Z,73.80
2018-12-09T07:27:20.530Z,73.30
2018-12-09T07:29:53.163Z,73.00
2018-12-09T07:33:46.836Z,72.40
2018-12-09T07:36:27.750Z,71.60
2018-12-09T07:38:56.475Z,71.30
2018-12-09T07:41:25.694Z,71.00
2018-12-09T07:43:54.496Z,70.60
2018-12-09T07:46:23.074Z,70.40
2018-12-09T07:48:51.864Z,70.30
2018-12-09T07:53:48.973Z,70.00
2018-12-09T07:56:17.560Z,69.90
2018-12-09T07:58:47.349Z,69.70
2018-12-09T08:01:15.893Z,69.50
2018-12-09T08:03:46.266Z,69.50
2018-12-09T08:06:15.474Z,69.30
2018-12-09T08:08:44.224Z,69.20
2018-12-09T08:11:27.088Z,69.20
2018-12-09T08:13:58.392Z,69.20
2018-12-09T08:16:27.065Z,69.10
2018-12-09T08:18:59.119Z,68.90
2018-12-09T08:21:27.870Z,68.80
2018-12-09T08:23:56.537Z,68.80
2018-12-09T08:26:25.297Z,68.70
2018-12-09T08:28:54.667Z,68.50
2018-12-09T08:31:23.396Z,68.50
2018-12-09T08:33:53.426Z,68.50
2018-12-09T08:36:22.043Z,68.60
2018-12-09T08:38:50.751Z,68.50
2018-12-09T08:41:20.086Z,68.40
2018-12-09T08:43:52.360Z,68.40
2018-12-09T08:46:21.079Z,68.40
2018-12-09T08:48:57.725Z,68.30
2018-12-09T08:51:26.491Z,68.30
2018-12-09T08:53:55.149Z,68.30
2018-12-09T08:56:23.689Z,68.20
2018-12-09T08:58:52.360Z,68.20
2018-12-09T09:01:22.445Z,68.10
2018-12-09T09:03:51.081Z,68.00
2018-12-09T09:06:19.820Z,68.00
2018-12-09T09:08:48.450Z,67.80
2018-12-09T09:11:17.225Z,67.80
2018-12-09T09:13:52.398Z,67.80
2018-12-09T09:16:27.802Z,67.60
2018-12-09T09:18:58.331Z,67.50
2018-12-09T09:21:27.272Z,67.20
2018-12-09T09:23:55.919Z,67.10
2018-12-09T09:26:39.075Z,67.00
2018-12-09T09:36:06.635Z,66.50
2018-12-09T09:38:35.417Z,66.50
2018-12-09T09:41:04.496Z,66.40
2018-12-09T09:43:33.134Z,66.30
2018-12-09T09:46:01.855Z,66.20
2018-12-09T09:48:30.484Z,66.20
2018-12-09T09:50:59.185Z,66.10
2018-12-09T09:53:28.540Z,65.90
2018-12-09T09:56:09.193Z,65.80
2018-12-09T09:58:40.470Z,65.70
2018-12-09T10:03:43.304Z,65.70
2018-12-09T10:06:12.573Z,65.60
2018-12-09T10:08:46.442Z,65.60
2018-12-09T10:11:16.080Z,65.50
2018-12-09T10:13:51.703Z,65.50
2018-12-09T10:16:27.780Z,65.40
2018-12-09T10:18:58.439Z,65.40
2018-12-09T10:21:33.832Z,65.20
2018-12-09T10:24:10.657Z,65.10
2018-12-09T10:26:40.364Z,65.10
2018-12-09T10:29:09.182Z,65.10
2018-12-09T10:31:37.816Z,65.20
2018-12-09T10:34:18.260Z,65.10
2018-12-09T10:36:57.914Z,65.10
2018-12-09T10:39:27.208Z,65.00
2018-12-09T10:41:56.487Z,65.00
2018-12-09T10:44:25.876Z,64.90
2018-12-09T10:46:54.452Z,65.00
2018-12-09T10:49:23.310Z,65.00
2018-12-09T10:51:52.073Z,64.90
2018-12-09T10:54:20.745Z,64.90
2018-12-09T10:56:50.375Z,64.90
2018-12-09T10:59:22.424Z,64.80
2018-12-09T11:01:53.537Z,64.80
2018-12-09T11:04:24.124Z,64.80
2018-12-09T11:06:52.737Z,64.70
2018-12-09T11:09:21.461Z,64.80
2018-12-09T11:11:50.966Z,64.70
2018-12-09T11:14:22.728Z,64.70
2018-12-09T11:16:52.560Z,64.60
2018-12-09T11:19:21.347Z,64.60
2018-12-09T11:21:49.968Z,64.60
2018-12-09T11:24:22.665Z,64.50
2018-12-09T11:26:51.291Z,64.40
2018-12-09T11:29:20.012Z,64.50
2018-12-09T11:31:49.186Z,64.50
2018-12-09T11:34:27.929Z,64.50
2018-12-09T11:36:58.533Z,64.40
2018-12-09T11:39:27.144Z,64.40
2018-12-09T11:41:58.523Z,64.30
2018-12-09T11:44:27.936Z,64.10
2018-12-09T11:46:56.843Z,64.10
2018-12-09T11:49:25.451Z,64.10
2018-12-09T11:51:54.120Z,64.10
2018-12-09T11:54:28.917Z,64.00
2018-12-09T11:56:58.414Z,64.00
2018-12-09T11:59:27.110Z,64.00
2018-12-09T12:01:56.939Z,64.00
2018-12-09T12:04:25.534Z,64.00
2018-12-09T12:06:54.198Z,63.90
2018-12-09T12:12:16.495Z,64.00
2018-12-09T12:14:57.922Z,64.00
2018-12-09T12:17:26.821Z,64.00
2018-12-09T12:19:56.543Z,63.90
2018-12-09T12:22:25.237Z,64.00
2018-12-09T12:24:53.925Z,63.90
2018-12-09T12:27:22.616Z,63.80
2018-12-09T12:29:51.262Z,63.70
2018-12-09T12:32:19.973Z,63.70
2018-12-09T12:34:48.752Z,63.80
2018-12-09T12:37:17.559Z,63.70
2018-12-09T12:39:46.221Z,63.80
2018-12-09T12:42:15.955Z,63.80
2018-12-09T12:44:44.743Z,63.90
2018-12-09T12:47:13.543Z,63.80
2018-12-09T12:49:51.761Z,63.80
2018-12-09T12:52:28.384Z,63.80
2018-12-09T12:54:57.005Z,63.80
2018-12-09T12:57:40.285Z,63.80
2018-12-09T13:00:14.336Z,63.80
2018-12-09T13:02:43.101Z,63.90
2018-12-09T13:05:11.847Z,63.80
2018-12-09T13:07:40.540Z,63.80
2018-12-09T13:10:09.704Z,63.70
2018-12-09T13:12:57.268Z,63.70
2018-12-09T13:15:39.196Z,63.70
2018-12-09T13:18:21.225Z,63.70
2018-12-09T13:20:58.040Z,63.70
2018-12-09T13:23:26.805Z,63.60
2018-12-09T13:28:52.700Z,63.60
2018-12-09T13:31:21.272Z,63.50
2018-12-09T13:33:50.744Z,63.60
2018-12-09T13:36:20.024Z,63.70
2018-12-09T13:38:48.795Z,63.70
2018-12-09T13:41:19.127Z,63.60
2018-12-09T13:43:47.715Z,63.60
2018-12-09T13:46:16.534Z,63.60
2018-12-09T13:48:47.576Z,63.60
2018-12-09T13:51:16.236Z,63.60
2018-12-09T13:53:44.928Z,63.60
2018-12-09T13:56:13.587Z,63.60
2018-12-09T13:58:42.287Z,63.70
2018-12-09T14:01:16.491Z,63.60
2018-12-09T14:03:45.177Z,63.60
2018-12-09T14:06:14.460Z,63.50
2018-12-09T14:08:46.692Z,63.50
2018-12-09T14:11:15.340Z,63.50
2018-12-09T14:13:44.081Z,63.60
2018-12-09T14:16:13.352Z,63.60
2018-12-09T14:18:42.937Z,63.50
2018-12-09T14:21:16.695Z,63.60
2018-12-09T14:23:46.668Z,63.50
2018-12-09T14:26:16.751Z,63.60
2018-12-09T14:28:45.626Z,63.60
2018-12-09T14:31:14.262Z,63.60
2018-12-09T14:33:46.599Z,63.60
2018-12-09T14:36:15.174Z,63.40
2018-12-09T14:38:43.883Z,63.50
2018-12-09T14:41:12.467Z,63.50
2018-12-09T14:43:46.728Z,63.40
2018-12-09T14:46:16.654Z,63.40
2018-12-09T14:48:45.231Z,63.60
2018-12-09T14:51:17.441Z,63.60
2018-12-09T14:53:46.153Z,63.50
2018-12-09T14:56:15.041Z,63.40
2018-12-09T14:58:43.794Z,63.50
2018-12-09T15:01:12.461Z,63.40
2018-12-09T15:03:42.073Z,63.60
2018-12-09T15:06:10.838Z,63.60
2018-12-09T15:08:39.565Z,63.50
2018-12-09T15:11:08.186Z,63.30
2018-12-09T15:13:37.136Z,63.30
2018-12-09T15:16:06.163Z,63.20
2018-12-09T15:18:34.932Z,63.30
2018-12-09T15:21:10.346Z,63.30
2018-12-09T15:23:39.071Z,63.30
2018-12-09T15:26:07.882Z,63.30
2018-12-09T15:28:36.683Z,63.10
2018-12-09T15:31:05.496Z,63.10
2018-12-09T15:33:34.322Z,63.10
2018-12-09T15:36:03.033Z,63.10
2018-12-09T15:38:34.683Z,63.00
2018-12-09T15:41:03.542Z,63.10
2018-12-09T15:48:29.164Z,62.90
2018-12-09T15:50:58.029Z,63.00
2018-12-09T15:53:27.748Z,63.00
2018-12-09T15:55:56.489Z,63.10
2018-12-09T15:58:25.255Z,63.10
2018-12-09T16:00:55.194Z,63.10
2018-12-09T16:03:24.343Z,63.00
2018-12-09T16:05:53.053Z,62.90
2018-12-09T16:08:22.811Z,63.10
2018-12-09T16:10:51.835Z,63.20
2018-12-09T16:13:20.588Z,63.00
2018-12-09T16:15:58.144Z,63.10
2018-12-09T16:18:34.052Z,63.30
2018-12-09T16:21:02.774Z,63.30
2018-12-09T16:23:40.038Z,62.80
2018-12-09T16:26:08.754Z,62.80
2018-12-09T16:28:37.422Z,62.80
2018-12-09T16:31:06.085Z,64.20
2018-12-09T16:33:34.782Z,63.60
2018-12-09T16:36:04.528Z,63.80
2018-12-09T16:38:52.024Z,63.70
2018-12-09T16:41:22.815Z,63.60
2018-12-09T16:43:51.469Z,63.30
2018-12-09T16:46:20.299Z,63.30
2018-12-09T16:48:49.056Z,63.10
2018-12-09T16:51:17.679Z,63.10
2018-12-09T16:53:46.397Z,63.10
2018-12-09T16:56:15.101Z,62.70
2018-12-09T16:58:43.754Z,62.50
2018-12-09T17:01:12.405Z,62.50
2018-12-09T17:03:41.141Z,62.40
2018-12-09T17:06:09.966Z,62.30
2018-12-09T17:08:38.814Z,62.40
2018-12-09T17:11:07.726Z,62.50
2018-12-09T17:13:36.522Z,62.50
2018-12-09T17:16:05.242Z,62.50
2018-12-09T17:18:34.010Z,62.50
2018-12-09T17:21:02.658Z,62.60
2018-12-09T17:23:31.360Z,62.60
2018-12-09T17:26:00.293Z,62.60
2018-12-09T17:28:35.860Z,62.60
2018-12-09T17:31:04.851Z,62.70
2018-12-09T17:33:33.642Z,62.70
2018-12-09T17:36:02.866Z,62.70
2018-12-09T17:38:31.574Z,62.70
2018-12-09T17:41:00.214Z,62.60
2018-12-09T17:43:29.014Z,62.70
2018-12-09T17:45:57.773Z,62.70
2018-12-09T17:48:27.015Z,62.70
2018-12-09T17:50:55.772Z,62.70
2018-12-09T17:53:24.452Z,62.70
2018-12-09T17:55:53.261Z,62.70
2018-12-09T17:58:22.880Z,62.60
2018-12-09T18:00:51.523Z,62.70
2018-12-09T18:03:20.232Z,62.60
2018-12-09T18:05:58.744Z,62.50
2018-12-09T18:08:27.453Z,62.60
2018-12-09T18:10:56.048Z,62.80
2018-12-09T18:13:25.105Z,62.50
2018-12-09T18:16:02.466Z,62.50
2018-12-09T18:18:36.247Z,62.50
2018-12-09T18:21:16.105Z,62.30
2018-12-09T18:23:46.859Z,62.30
2018-12-09T18:26:15.604Z,62.20
2018-12-09T18:28:44.422Z,62.00
2018-12-09T18:31:13.158Z,62.50
2018-12-09T18:33:42.153Z,62.90
2018-12-09T18:36:41.863Z,63.40
2018-12-09T18:39:10.679Z,63.90
2018-12-09T18:41:39.464Z,64.40
2018-12-09T18:44:10.745Z,64.30
2018-12-09T18:46:39.450Z,64.80
2018-12-09T18:49:10.781Z,64.70
2018-12-09T18:51:40.812Z,64.80
2018-12-09T18:54:10.741Z,64.50
2018-12-09T18:56:39.433Z,64.50
2018-12-09T18:59:08.173Z,65.30
2018-12-09T19:01:40.768Z,65.40
2018-12-09T19:04:09.411Z,66.00
2018-12-09T19:06:38.885Z,66.10
2018-12-09T19:09:07.920Z,66.10
2018-12-09T19:11:36.501Z,66.20
2018-12-09T19:14:05.123Z,66.30
2018-12-09T19:16:35.095Z,66.40
2018-12-09T19:19:04.902Z,66.50
2018-12-09T19:21:33.737Z,66.80
2018-12-09T19:24:02.355Z,66.60
2018-12-09T19:26:31.065Z,66.80
2018-12-09T19:28:59.965Z,66.30
2018-12-09T19:31:28.699Z,66.70
2018-12-09T19:33:57.614Z,66.60
2018-12-09T19:36:26.239Z,66.60
2018-12-09T19:38:54.867Z,66.60
2018-12-09T19:41:24.269Z,66.70
2018-12-09T19:43:58.818Z,66.60
2018-12-09T19:46:28.337Z,66.60
2018-12-09T19:48:57.038Z,66.70
2018-12-09T19:53:57.570Z,66.60
2018-12-09T19:56:29.443Z,66.60
2018-12-09T19:58:58.078Z,66.70
2018-12-09T20:01:28.830Z,66.50
2018-12-09T20:03:58.734Z,66.70
2018-12-09T20:06:27.362Z,66.90
2018-12-09T20:08:58.774Z,66.70
2018-12-09T20:11:27.436Z,66.80
2018-12-09T20:13:56.755Z,66.60
2018-12-09T20:16:25.393Z,66.90
2018-12-09T20:18:54.169Z,66.70
2018-12-09T20:21:29.457Z,66.90
2018-12-09T20:23:59.150Z,67.00
2018-12-09T20:26:27.792Z,67.00
2018-12-09T20:28:56.374Z,67.10
2018-12-09T20:31:25.199Z,66.80
2018-12-09T20:34:14.509Z,67.00
2018-12-09T20:36:43.752Z,66.70
2018-12-09T20:39:13.029Z,66.80
2018-12-09T20:41:52.238Z,66.60
2018-12-09T20:44:21.086Z,66.50
2018-12-09T20:46:49.806Z,66.60
2018-12-09T20:49:18.480Z,66.50
2018-12-09T20:51:47.678Z,66.50
2018-12-09T20:54:16.516Z,66.50
2018-12-09T20:56:45.120Z,66.50
2018-12-09T20:59:13.844Z,66.30
2018-12-09T21:01:42.524Z,66.70
2018-12-09T21:04:12.193Z,66.40
2018-12-09T21:06:41.928Z,66.20
2018-12-09T21:09:10.588Z,66.40
2018-12-09T21:11:39.349Z,66.60
2018-12-09T21:14:08.668Z,66.20
2018-12-09T21:16:38.096Z,66.50
2018-12-09T21:19:07.622Z,66.20
2018-12-09T21:21:36.293Z,66.20
2018-12-09T21:24:05.694Z,66.00
2018-12-09T21:26:34.292Z,66.10
2018-12-09T21:29:03.618Z,66.30
2018-12-09T21:31:32.301Z,66.20
2018-12-09T21:34:01.132Z,66.30
2018-12-09T21:36:34.812Z,66.20
2018-12-09T21:39:06.900Z,66.30
2018-12-09T21:41:40.975Z,66.00
2018-12-09T21:44:14.218Z,65.80
2018-12-09T21:46:42.851Z,66.20
2018-12-09T21:49:17.496Z,65.80
2018-12-09T21:51:46.158Z,65.70
2018-12-09T21:54:14.927Z,65.60
2018-12-09T21:56:43.537Z,66.10
2018-12-09T21:59:12.229Z,66.40
2018-12-09T22:01:40.865Z,65.80
2018-12-09T22:04:09.548Z,65.80
2018-12-09T22:06:40.976Z,65.80
2018-12-09T22:09:10.841Z,65.60
2018-12-09T22:11:40.884Z,65.40
2018-12-09T22:14:10.882Z,65.50
2018-12-09T22:16:39.645Z,65.50
2018-12-09T22:19:08.327Z,65.50
2018-12-09T22:21:40.835Z,65.50
2018-12-09T22:24:09.544Z,65.60
2018-12-09T22:26:38.182Z,65.20
2018-12-09T22:29:07.421Z,65.20
2018-12-09T22:31:36.148Z,65.20
2018-12-09T22:34:05.104Z,65.60
2018-12-09T22:36:33.741Z,65.60
2018-12-09T22:39:02.447Z,65.20
2018-12-09T22:41:31.067Z,65.20
2018-12-09T22:44:00.633Z,65.20
2018-12-09T22:46:29.301Z,65.10
2018-12-09T22:48:57.991Z,65.00
2018-12-09T22:51:26.668Z,65.00
2018-12-09T22:53:55.363Z,65.00
2018-12-09T22:56:24.126Z,64.90
2018-12-09T22:58:53.229Z,65.00
2018-12-09T23:01:22.411Z,65.10
2018-12-09T23:03:59.417Z,65.10
2018-12-09T23:06:27.991Z,65.00
2018-12-09T23:08:57.605Z,65.00
2018-12-09T23:11:26.181Z,65.40
2018-12-09T23:13:55.856Z,64.70
2018-12-09T23:16:24.624Z,64.80
2018-12-09T23:18:54.293Z,64.90
2018-12-09T23:21:22.978Z,65.00
2018-12-09T23:23:52.992Z,65.00
2018-12-09T23:26:22.260Z,64.80
2018-12-09T23:28:51.327Z,65.10
2018-12-09T23:31:22.896Z,64.80
2018-12-09T23:33:53.411Z,64.50
2018-12-09T23:36:23.052Z,64.80
2018-12-09T23:38:52.545Z,64.80
2018-12-09T23:41:21.289Z,64.60
2018-12-09T23:43:50.906Z,64.60
2018-12-09T23:46:23.012Z,64.60
2018-12-09T23:48:53.761Z,64.70
2018-12-09T23:51:23.021Z,64.70
2018-12-09T23:53:51.736Z,64.60
2018-12-09T23:56:20.337Z,64.60
2018-12-09T23:58:49.042Z,64.60
